Time;durP1;ratioP1;P1;durP2;ratioP2;P2;SDS_P1;SDS_P2;PMS_P1;PMS_P2;Temp;Humidity;BMP_temperature;BMP_pressure;BME280_temperature;BME280_humidity;BME280_pressure;Samples;Min_cycle;Max_cycle;Signal;HPM_P1;HPM_P2
2022/05/17 00:00:46;;;;;;;;;;;20.20;99.90;;;;;;5044413;28;19917;-73
2022/05/17 00:03:11;;;;;;;;;;;20.20;99.90;;;;;;5044409;28;20314;-73
2022/05/17 00:05:37;;;;;;;;;;;20.10;99.90;;;;;;5048808;28;20121;-73
2022/05/17 00:08:03;;;;;;;;;;;20.20;99.90;;;;;;5046531;28;20125;-73
2022/05/17 00:10:28;;;;;;;;;;;20.10;99.90;;;;;;5047866;28;19920;-73
2022/05/17 00:12:55;;;;;;;;;;;20.20;99.90;;;;;;5053424;28;19912;-73
2022/05/17 00:15:21;;;;;;;;;;;20.20;99.90;;;;;;5060996;28;19913;-73
2022/05/17 00:17:48;;;;;;;;;;;20.10;99.90;;;;;;5047022;28;19992;-72
2022/05/17 00:20:14;;;;;;;;;;;20.20;99.90;;;;;;5048724;28;19967;-74
2022/05/17 00:22:39;;;;;;;;;;;20.10;99.90;;;;;;5048306;28;19999;-73
2022/05/17 00:25:05;;;;;;;;;;;20.10;99.90;;;;;;5057102;28;19912;-73
2022/05/17 00:27:31;;;;;;;;;;;20.10;99.90;;;;;;5046405;28;20003;-73
2022/05/17 00:29:57;;;;;;;;;;;20.10;99.90;;;;;;5048392;28;19948;-73
2022/05/17 00:32:22;;;;;;;;;;;20.20;99.90;;;;;;5047175;28;19959;-73
2022/05/17 00:34:48;;;;;;;;;;;20.20;99.90;;;;;;5030985;28;19913;-73
2022/05/17 00:37:14;;;;;;;;;;;20.30;99.90;;;;;;5048678;28;20362;-72
2022/05/17 00:39:39;;;;;;;;;;;20.20;99.90;;;;;;5047300;28;20398;-72
2022/05/17 00:42:05;;;;;;;;;;;20.20;99.90;;;;;;5045964;28;19943;-72
2022/05/17 00:44:43;;;;;;;;;;;20.10;99.90;;;;;;5030450;28;20362;-73
2022/05/17 00:47:17;;;;;;;;;;;20.20;99.90;;;;;;5050099;28;20019;-72
2022/05/17 00:49:58;;;;;;;;;;;20.10;99.90;;;;;;5032716;28;19959;-72
2022/05/17 00:52:26;;;;;;;;;;;20.10;99.90;;;;;;5043189;28;20259;-73
2022/05/17 00:54:53;;;;;;;;;;;20.10;99.90;;;;;;5047677;28;20653;-72
2022/05/17 00:57:27;;;;;;;;;;;20.00;99.90;;;;;;5045810;28;19913;-72
2022/05/17 00:59:53;;;;;;;;;;;20.00;99.90;;;;;;5044249;28;20367;-71
2022/05/17 01:02:19;;;;;;;;;;;19.90;99.90;;;;;;5047799;28;20251;-72
2022/05/17 01:04:44;;;;;;;;;;;19.90;99.90;;;;;;5023805;28;19917;-73
2022/05/17 01:07:13;;;;;;;;;;;19.90;99.90;;;;;;5045237;28;19956;-74
2022/05/17 01:09:38;;;;;;;;;;;19.90;99.90;;;;;;5043786;28;20256;-72
2022/05/17 01:12:04;;;;;;;;;;;19.90;99.90;;;;;;5048667;28;19919;-72
2022/05/17 01:17:14;;;;;;;;;;;19.90;99.90;;;;;;5053252;28;19915;-72
2022/05/17 01:19:40;;;;;;;;;;;20.00;99.90;;;;;;5027897;28;19917;-73
2022/05/17 01:22:06;;;;;;;;;;;20.00;99.90;;;;;;5051505;28;20640;-73
2022/05/17 01:24:32;;;;;;;;;;;20.00;99.90;;;;;;5053488;28;19917;-72
2022/05/17 01:27:08;;;;;;;;;;;20.00;99.90;;;;;;5053818;28;20298;-72
2022/05/17 01:29:38;;;;;;;;;;;20.00;99.90;;;;;;5052678;28;19913;-72
2022/05/17 01:32:03;;;;;;;;;;;19.90;99.90;;;;;;5032562;28;19927;-72
2022/05/17 01:34:29;;;;;;;;;;;19.90;99.90;;;;;;5049473;28;19913;-71
2022/05/17 01:36:55;;;;;;;;;;;19.80;99.90;;;;;;5059707;28;19913;-72
2022/05/17 01:39:20;;;;;;;;;;;19.90;99.90;;;;;;5050711;28;19988;-72
2022/05/17 01:41:46;;;;;;;;;;;19.90;99.90;;;;;;5064005;28;20031;-72
2022/05/17 01:44:11;;;;;;;;;;;19.90;99.90;;;;;;5050640;28;19921;-72
2022/05/17 01:46:37;;;;;;;;;;;19.90;99.90;;;;;;5060468;28;19913;-71
2022/05/17 01:49:02;;;;;;;;;;;19.90;99.90;;;;;;5067705;28;19984;-72
2022/05/17 01:51:28;;;;;;;;;;;19.90;99.90;;;;;;5079764;28;19916;-71
2022/05/17 01:53:53;;;;;;;;;;;19.90;99.90;;;;;;5068239;28;19924;-71
2022/05/17 01:56:19;;;;;;;;;;;20.00;99.90;;;;;;5064756;28;19901;-72
2022/05/17 01:58:45;;;;;;;;;;;20.00;99.90;;;;;;5067817;28;19921;-70
2022/05/17 02:01:11;;;;;;;;;;;19.90;99.90;;;;;;5053699;28;19951;-71
2022/05/17 02:03:37;;;;;;;;;;;19.90;99.90;;;;;;5052071;28;19928;-72
2022/05/17 02:06:02;;;;;;;;;;;19.90;99.90;;;;;;5045709;28;20441;-73
2022/05/17 02:08:29;;;;;;;;;;;19.90;99.90;;;;;;5044214;28;20012;-72
2022/05/17 02:10:55;;;;;;;;;;;20.00;99.90;;;;;;5049755;28;19913;-72
2022/05/17 02:13:21;;;;;;;;;;;20.00;99.90;;;;;;5052275;28;20015;-73
2022/05/17 02:15:46;;;;;;;;;;;19.90;99.90;;;;;;5050062;28;19939;-72
2022/05/17 02:18:12;;;;;;;;;;;19.90;99.90;;;;;;5052837;28;20014;-72
2022/05/17 02:20:37;;;;;;;;;;;19.90;99.90;;;;;;5053201;28;20019;-72
2022/05/17 02:23:03;;;;;;;;;;;19.90;99.90;;;;;;5047772;28;20015;-73
2022/05/17 02:25:28;;;;;;;;;;;19.90;99.90;;;;;;5050325;28;19960;-72
2022/05/17 02:27:54;;;;;;;;;;;19.90;99.90;;;;;;5051427;28;19923;-72
2022/05/17 02:30:20;;;;;;;;;;;19.90;99.90;;;;;;5064833;28;20374;-72
2022/05/17 02:32:45;;;;;;;;;;;19.80;99.90;;;;;;5055436;28;19934;-72
2022/05/17 02:35:12;;;;;;;;;;;19.80;99.90;;;;;;5049778;28;19913;-72
2022/05/17 02:37:38;;;;;;;;;;;19.90;99.90;;;;;;5052209;28;20005;-72
2022/05/17 02:40:05;;;;;;;;;;;19.90;99.90;;;;;;5057402;28;20354;-72
2022/05/17 02:42:30;;;;;;;;;;;20.00;99.90;;;;;;5053536;28;19912;-72
2022/05/17 02:44:56;;;;;;;;;;;20.00;99.90;;;;;;5057909;28;19921;-73
2022/05/17 02:47:21;;;;;;;;;;;20.00;99.90;;;;;;5068183;28;19961;-73
2022/05/17 02:49:47;;;;;;;;;;;20.10;99.90;;;;;;5064370;28;20016;-73
2022/05/17 02:52:13;;;;;;;;;;;20.10;99.90;;;;;;5051426;28;19975;-72
2022/05/17 02:54:39;;;;;;;;;;;20.10;99.90;;;;;;5052583;28;20358;-73
2022/05/17 02:57:05;;;;;;;;;;;20.00;99.90;;;;;;5049617;28;20306;-73
2022/05/17 02:59:31;;;;;;;;;;;20.00;99.90;;;;;;5032858;28;19966;-73
2022/05/17 03:01:57;;;;;;;;;;;20.00;99.90;;;;;;5043364;28;19920;-73
2022/05/17 03:04:22;;;;;;;;;;;20.00;99.90;;;;;;5031885;28;20269;-73
2022/05/17 03:06:48;;;;;;;;;;;19.90;99.90;;;;;;5060135;28;20417;-74
2022/05/17 03:09:14;;;;;;;;;;;19.90;99.90;;;;;;5054663;28;19913;-73
2022/05/17 03:11:43;;;;;;;;;;;19.90;99.90;;;;;;5055981;28;20293;-72
2022/05/17 03:14:09;;;;;;;;;;;19.90;99.90;;;;;;5049719;28;19924;-73
2022/05/17 03:16:35;;;;;;;;;;;19.80;99.90;;;;;;5050599;28;19913;-72
2022/05/17 03:19:01;;;;;;;;;;;19.80;99.90;;;;;;5064449;28;19909;-73
2022/05/17 03:21:26;;;;;;;;;;;19.70;99.90;;;;;;5057071;28;19921;-72
2022/05/17 03:23:52;;;;;;;;;;;19.70;99.90;;;;;;5052004;28;19917;-73
2022/05/17 03:26:18;;;;;;;;;;;19.60;99.90;;;;;;5046154;28;19917;-73
2022/05/17 03:28:44;;;;;;;;;;;19.60;99.90;;;;;;5050848;28;19919;-73
2022/05/17 03:31:10;;;;;;;;;;;19.60;99.90;;;;;;5051319;28;20417;-73
2022/05/17 03:33:37;;;;;;;;;;;19.60;99.90;;;;;;5032804;28;19979;-73
2022/05/17 03:36:03;;;;;;;;;;;19.60;99.90;;;;;;5057200;28;19920;-73
2022/05/17 03:38:29;;;;;;;;;;;19.70;99.90;;;;;;5059690;28;19920;-72
2022/05/17 03:40:54;;;;;;;;;;;19.60;99.90;;;;;;5068251;28;20363;-73
2022/05/17 03:43:20;;;;;;;;;;;19.60;99.90;;;;;;5051193;28;19917;-73
2022/05/17 03:45:47;;;;;;;;;;;19.50;99.90;;;;;;5058425;28;19919;-72
2022/05/17 03:48:12;;;;;;;;;;;19.60;99.90;;;;;;5055756;28;20065;-73
2022/05/17 03:50:39;;;;;;;;;;;19.60;99.90;;;;;;5063386;28;19912;-73
2022/05/17 03:53:04;;;;;;;;;;;19.60;99.90;;;;;;5032968;28;19922;-73
2022/05/17 03:55:30;;;;;;;;;;;19.50;99.90;;;;;;5049652;28;20763;-73
2022/05/17 03:57:56;;;;;;;;;;;19.70;99.90;;;;;;5050734;28;19917;-73
2022/05/17 04:00:22;;;;;;;;;;;19.80;99.90;;;;;;5044384;28;20032;-72
2022/05/17 04:02:48;;;;;;;;;;;19.80;99.90;;;;;;5041150;28;19916;-73
2022/05/17 04:05:13;;;;;;;;;;;19.70;99.90;;;;;;5049587;28;20002;-73
2022/05/17 04:07:39;;;;;;;;;;;19.70;99.90;;;;;;5045204;28;20007;-72
2022/05/17 04:10:06;;;;;;;;;;;19.70;99.90;;;;;;5053964;28;20412;-72
2022/05/17 04:12:31;;;;;;;;;;;19.70;99.90;;;;;;5049686;28;19935;-72
2022/05/17 04:14:57;;;;;;;;;;;19.70;99.90;;;;;;5050269;28;20339;-73
2022/05/17 04:17:22;;;;;;;;;;;19.80;99.90;;;;;;5049559;28;19936;-73
2022/05/17 04:19:48;;;;;;;;;;;19.80;99.90;;;;;;5031904;28;20283;-73
2022/05/17 04:22:13;;;;;;;;;;;19.90;99.90;;;;;;5040467;28;19974;-73
2022/05/17 04:24:41;;;;;;;;;;;20.00;99.90;;;;;;5046536;28;19921;-73
2022/05/17 04:27:07;;;;;;;;;;;20.10;99.90;;;;;;5044028;28;19917;-74
2022/05/17 04:29:32;;;;;;;;;;;20.20;99.90;;;;;;5048299;28;19935;-72
2022/05/17 04:31:58;;;;;;;;;;;20.30;99.90;;;;;;5039719;28;19917;-73
2022/05/17 04:34:24;;;;;;;;;;;20.40;99.90;;;;;;5028839;28;19912;-73
2022/05/17 04:36:49;;;;;;;;;;;20.40;99.90;;;;;;5037310;28;19920;-72
2022/05/17 04:39:15;;;;;;;;;;;20.30;99.90;;;;;;5056945;28;19913;-73
2022/05/17 04:41:40;;;;;;;;;;;20.30;99.90;;;;;;5046298;28;20330;-72
2022/05/17 04:44:06;;;;;;;;;;;20.30;99.90;;;;;;5050019;28;20362;-72
2022/05/17 04:46:32;;;;;;;;;;;20.30;99.90;;;;;;5046888;28;19912;-73
2022/05/17 04:48:58;;;;;;;;;;;20.20;99.90;;;;;;5046580;28;19912;-72
2022/05/17 04:51:24;;;;;;;;;;;20.20;99.90;;;;;;5030906;28;19913;-73
2022/05/17 04:53:49;;;;;;;;;;;20.20;99.90;;;;;;5036353;28;19959;-73
2022/05/17 04:56:15;;;;;;;;;;;20.20;99.90;;;;;;5062286;28;19975;-73
2022/05/17 04:58:40;;;;;;;;;;;20.20;99.90;;;;;;5050472;28;20007;-71
2022/05/17 05:01:06;;;;;;;;;;;20.20;99.90;;;;;;5046210;28;19916;-73
2022/05/17 05:03:32;;;;;;;;;;;20.40;99.90;;;;;;5058575;28;20322;-73
2022/05/17 05:05:57;;;;;;;;;;;20.50;99.90;;;;;;5062182;28;19924;-72
2022/05/17 05:08:23;;;;;;;;;;;20.70;99.90;;;;;;5057682;28;20007;-73
2022/05/17 05:10:48;;;;;;;;;;;20.80;99.90;;;;;;5030270;28;19913;-72
2022/05/17 05:13:18;;;;;;;;;;;20.90;99.90;;;;;;5051306;28;20271;-75
2022/05/17 05:15:44;;;;;;;;;;;21.00;99.90;;;;;;5062806;28;20546;-72
2022/05/17 05:18:10;;;;;;;;;;;21.10;99.90;;;;;;5051640;28;19923;-73
2022/05/17 05:20:35;;;;;;;;;;;21.10;99.90;;;;;;5044847;28;19936;-73
2022/05/17 05:23:01;;;;;;;;;;;21.10;99.90;;;;;;5050206;28;20293;-73
2022/05/17 05:25:27;;;;;;;;;;;21.10;99.90;;;;;;5056451;28;20304;-73
2022/05/17 05:27:54;;;;;;;;;;;21.20;99.90;;;;;;5032124;28;20022;-73
2022/05/17 05:30:20;;;;;;;;;;;21.20;99.90;;;;;;5048362;28;19944;-73
2022/05/17 05:32:46;;;;;;;;;;;21.30;99.90;;;;;;5062895;28;20354;-73
2022/05/17 05:35:13;;;;;;;;;;;21.40;99.90;;;;;;5051573;28;19992;-73
2022/05/17 05:37:39;;;;;;;;;;;21.40;99.90;;;;;;5056683;28;20323;-73
2022/05/17 05:40:06;;;;;;;;;;;21.50;99.90;;;;;;5038111;28;20011;-72
2022/05/17 05:42:32;;;;;;;;;;;21.50;99.90;;;;;;5052755;28;20385;-73
2022/05/17 05:44:57;;;;;;;;;;;21.60;99.90;;;;;;5045526;28;19916;-73
2022/05/17 05:47:23;;;;;;;;;;;21.70;99.90;;;;;;5048797;28;19912;-74
2022/05/17 05:49:48;;;;;;;;;;;21.70;99.90;;;;;;5045069;28;19944;-73
2022/05/17 05:52:14;;;;;;;;;;;21.80;99.90;;;;;;5047315;28;19912;-73
2022/05/17 05:54:40;;;;;;;;;;;21.80;99.90;;;;;;5045528;28;19913;-72
2022/05/17 05:57:06;;;;;;;;;;;22.00;99.90;;;;;;5048812;28;19920;-72
2022/05/17 05:59:32;;;;;;;;;;;22.00;99.90;;;;;;5044328;28;19918;-73
2022/05/17 06:01:57;;;;;;;;;;;22.20;99.90;;;;;;5027590;28;20570;-73
2022/05/17 06:04:27;;;;;;;;;;;22.20;99.90;;;;;;5047735;28;19916;-73
2022/05/17 06:06:53;;;;;;;;;;;22.40;99.90;;;;;;5049015;28;19924;-72
2022/05/17 06:09:19;;;;;;;;;;;22.40;99.90;;;;;;5049870;28;19909;-72
2022/05/17 06:11:44;;;;;;;;;;;22.50;99.90;;;;;;5051301;28;19913;-72
2022/05/17 06:14:11;;;;;;;;;;;22.60;99.90;;;;;;5048653;28;19912;-73
2022/05/17 06:16:36;;;;;;;;;;;22.70;99.90;;;;;;5033039;28;19913;-72
2022/05/17 06:19:02;;;;;;;;;;;22.70;99.90;;;;;;5044794;28;19913;-73
2022/05/17 06:21:28;;;;;;;;;;;22.60;99.90;;;;;;5051937;28;20000;-72
2022/05/17 06:23:54;;;;;;;;;;;22.70;99.90;;;;;;5045965;28;19965;-73
2022/05/17 06:26:19;;;;;;;;;;;22.80;99.90;;;;;;5047987;28;20308;-73
2022/05/17 06:28:45;;;;;;;;;;;23.00;99.90;;;;;;5061750;28;19963;-73
2022/05/17 06:31:11;;;;;;;;;;;23.20;99.90;;;;;;5050322;28;19908;-71
2022/05/17 06:33:39;;;;;;;;;;;23.20;99.90;;;;;;5051129;28;19959;-72
2022/05/17 06:36:05;;;;;;;;;;;23.30;99.90;;;;;;5052445;28;19944;-72
2022/05/17 06:38:31;;;;;;;;;;;23.30;99.90;;;;;;5051731;28;19913;-72
2022/05/17 06:40:57;;;;;;;;;;;23.30;99.90;;;;;;5049691;28;19917;-73
2022/05/17 06:43:23;;;;;;;;;;;23.30;99.90;;;;;;5046170;28;20008;-73
2022/05/17 06:45:49;;;;;;;;;;;23.10;99.90;;;;;;5053536;28;20394;-73
2022/05/17 06:48:15;;;;;;;;;;;23.00;99.90;;;;;;5052417;28;20039;-73
2022/05/17 06:50:40;;;;;;;;;;;22.90;99.90;;;;;;5052804;28;20348;-72
2022/05/17 06:53:08;;;;;;;;;;;22.90;99.90;;;;;;5045165;28;20290;-72
2022/05/17 06:55:33;;;;;;;;;;;22.80;99.90;;;;;;5052433;28;19912;-73
2022/05/17 06:57:59;;;;;;;;;;;22.80;99.90;;;;;;5052013;28;20317;-73
2022/05/17 07:00:24;;;;;;;;;;;22.80;99.90;;;;;;5049789;28;20007;-72
2022/05/17 07:02:50;;;;;;;;;;;22.80;99.90;;;;;;5052789;28;20315;-72
2022/05/17 07:05:16;;;;;;;;;;;22.70;99.90;;;;;;5047429;28;19920;-73
2022/05/17 07:07:42;;;;;;;;;;;22.60;99.90;;;;;;5049283;28;19919;-73
2022/05/17 07:13:09;;;;;;;;;;;22.60;99.90;;;;;;5033794;28;19913;-75
2022/05/17 07:15:35;;;;;;;;;;;22.50;99.90;;;;;;5043907;28;20329;-72
2022/05/17 07:18:01;;;;;;;;;;;22.60;99.90;;;;;;5046696;28;19917;-75
2022/05/17 07:20:27;;;;;;;;;;;22.70;99.90;;;;;;5048850;28;19916;-72
2022/05/17 07:22:53;;;;;;;;;;;22.70;99.90;;;;;;5050409;28;19920;-72
2022/05/17 07:25:19;;;;;;;;;;;22.70;99.90;;;;;;5051337;28;19920;-72
2022/05/17 07:27:47;;;;;;;;;;;22.70;99.90;;;;;;5030577;28;19920;-72
2022/05/17 07:30:13;;;;;;;;;;;22.70;99.90;;;;;;5053315;28;20012;-72
2022/05/17 07:32:38;;;;;;;;;;;22.80;99.90;;;;;;5049631;28;19923;-72
2022/05/17 07:35:04;;;;;;;;;;;22.80;99.90;;;;;;5050999;28;19909;-72
2022/05/17 07:37:30;;;;;;;;;;;22.80;99.90;;;;;;5048383;28;19917;-72
2022/05/17 07:39:56;;;;;;;;;;;22.80;99.90;;;;;;5028899;28;20067;-66
2022/05/17 07:42:21;;;;;;;;;;;22.90;99.90;;;;;;5051437;28;19909;-67
2022/05/17 07:44:47;;;;;;;;;;;22.90;99.90;;;;;;5049986;28;20362;-67
2022/05/17 07:47:12;;;;;;;;;;;23.10;99.90;;;;;;5049848;28;20529;-67
2022/05/17 07:49:38;;;;;;;;;;;23.30;99.90;;;;;;5030397;28;20033;-67
2022/05/17 07:52:04;;;;;;;;;;;23.50;99.90;;;;;;5046081;28;19912;-66
2022/05/17 07:54:30;;;;;;;;;;;23.70;99.90;;;;;;5048276;28;19960;-66
2022/05/17 07:56:56;;;;;;;;;;;23.90;99.90;;;;;;5049767;28;19944;-67
2022/05/17 07:59:21;;;;;;;;;;;24.00;99.90;;;;;;5040715;28;19917;-66
2022/05/17 08:01:47;;;;;;;;;;;24.00;99.90;;;;;;5045428;28;19955;-68
2022/05/17 08:04:12;;;;;;;;;;;23.90;99.90;;;;;;5049351;28;20413;-64
2022/05/17 08:06:39;;;;;;;;;;;23.70;99.90;;;;;;5033166;28;20302;-66
2022/05/17 08:09:05;;;;;;;;;;;23.80;99.90;;;;;;5042093;28;19913;-66
2022/05/17 08:11:31;;;;;;;;;;;23.90;99.90;;;;;;5046585;28;20278;-66
2022/05/17 08:13:57;;;;;;;;;;;24.00;99.90;;;;;;5049349;28;19960;-67
2022/05/17 08:16:22;;;;;;;;;;;24.10;99.90;;;;;;5048830;28;19952;-66
2022/05/17 08:18:48;;;;;;;;;;;24.20;99.90;;;;;;5049379;28;19964;-66
2022/05/17 08:21:13;;;;;;;;;;;24.20;99.90;;;;;;5044761;28;19917;-67
2022/05/17 08:23:39;;;;;;;;;;;24.40;99.90;;;;;;5049810;28;20007;-66
2022/05/17 08:28:48;;;;;;;;;;;24.60;99.90;;;;;;5047629;28;19959;-66
2022/05/17 08:31:14;;;;;;;;;;;24.40;99.90;;;;;;5046072;28;19952;-69
2022/05/17 08:33:40;;;;;;;;;;;24.20;99.90;;;;;;5045379;28;19913;-68
2022/05/17 08:36:08;;;;;;;;;;;24.20;99.90;;;;;;5048661;28;19919;-68
2022/05/17 08:38:35;;;;;;;;;;;24.20;99.90;;;;;;5056585;28;20444;-69
2022/05/17 08:41:19;;;;;;;;;;;24.30;99.90;;;;;;5045923;28;19923;-68
2022/05/17 08:43:54;;;;;;;;;;;24.30;99.90;;;;;;5048135;28;20317;-67
2022/05/17 08:46:26;;;;;;;;;;;24.10;99.90;;;;;;5046227;28;19971;-68
2022/05/17 08:48:53;;;;;;;;;;;24.10;99.90;;;;;;5048697;28;20834;-67
2022/05/17 08:51:28;;;;;;;;;;;24.20;99.90;;;;;;5056304;28;19978;-68
2022/05/17 08:53:54;;;;;;;;;;;24.40;99.90;;;;;;5049942;28;19909;-66
2022/05/17 08:56:20;;;;;;;;;;;24.40;99.90;;;;;;5047897;28;20108;-66
2022/05/17 08:58:46;;;;;;;;;;;24.40;99.90;;;;;;5047778;28;19924;-65
2022/05/17 09:01:32;;;;;;;;;;;24.50;99.90;;;;;;5043399;28;19920;-66
2022/05/17 09:03:59;;;;;;;;;;;24.30;99.90;;;;;;5045386;28;20406;-67
2022/05/17 09:06:31;;;;;;;;;;;24.20;99.90;;;;;;5048740;28;19913;-66
2022/05/17 09:09:19;;;;;;;;;;;24.20;99.90;;;;;;5050284;28;19908;-67
2022/05/17 09:12:08;;;;;;;;;;;24.20;99.90;;;;;;5019106;28;19913;-68
2022/05/17 09:14:36;;;;;;;;;;;24.20;99.90;;;;;;5046353;28;19959;-67
2022/05/17 09:17:05;;;;;;;;;;;24.30;99.90;;;;;;5053293;28;19915;-67
2022/05/17 09:19:30;;;;;;;;;;;24.20;99.90;;;;;;5046096;28;19920;-67
2022/05/17 09:22:00;;;;;;;;;;;24.20;99.90;;;;;;5052871;28;19912;-67
2022/05/17 09:24:27;;;;;;;;;;;24.40;99.90;;;;;;5044054;28;20300;-69
2022/05/17 09:27:01;;;;;;;;;;;24.50;99.90;;;;;;5045786;28;19912;-65
2022/05/17 09:29:42;;;;;;;;;;;24.50;99.90;;;;;;5047573;28;19947;-66
2022/05/17 09:32:11;;;;;;;;;;;24.20;99.90;;;;;;5049175;28;19926;-66
2022/05/17 09:34:43;;;;;;;;;;;24.10;99.90;;;;;;5047480;28;20006;-67
2022/05/17 09:37:13;;;;;;;;;;;24.10;99.90;;;;;;5050861;28;19962;-66
2022/05/17 09:39:39;;;;;;;;;;;24.00;99.90;;;;;;5048158;28;19921;-66
2022/05/17 09:42:06;;;;;;;;;;;24.10;99.90;;;;;;5046323;28;20918;-67
2022/05/17 09:44:33;;;;;;;;;;;24.00;99.90;;;;;;5052538;28;20471;-66
2022/05/17 09:47:05;;;;;;;;;;;24.10;99.90;;;;;;5050099;28;19912;-67
2022/05/17 09:52:34;;;;;;;;;;;23.90;99.90;;;;;;5049338;28;19924;-66
2022/05/17 09:55:21;;;;;;;;;;;23.80;99.90;;;;;;5051614;28;19912;-67
2022/05/17 09:58:06;;;;;;;;;;;23.90;99.90;;;;;;5060449;28;20012;-66
2022/05/17 10:00:32;;;;;;;;;;;23.80;99.90;;;;;;5043801;28;19918;-67
2022/05/17 10:03:03;;;;;;;;;;;23.80;99.90;;;;;;5055392;28;20012;-67
2022/05/17 10:05:28;;;;;;;;;;;23.70;99.90;;;;;;5051820;28;19920;-67
2022/05/17 10:07:59;;;;;;;;;;;23.80;99.90;;;;;;5050262;28;19928;-66
2022/05/17 10:10:25;;;;;;;;;;;23.60;99.90;;;;;;5053705;28;19925;-65
2022/05/17 10:12:52;;;;;;;;;;;23.50;99.90;;;;;;5041287;28;19940;-67
2022/05/17 10:15:19;;;;;;;;;;;23.30;99.90;;;;;;5032002;28;19955;-66
2022/05/17 10:17:49;;;;;;;;;;;23.40;99.90;;;;;;5030737;28;19990;-68
2022/05/17 10:20:34;;;;;;;;;;;23.30;99.90;;;;;;5050325;28;19917;-67
2022/05/17 10:23:02;;;;;;;;;;;23.20;99.90;;;;;;5050154;28;19920;-66
2022/05/17 10:25:31;;;;;;;;;;;23.30;99.90;;;;;;5051020;28;19917;-66
2022/05/17 10:28:13;;;;;;;;;;;23.40;99.90;;;;;;5044966;28;19948;-67
2022/05/17 10:30:47;;;;;;;;;;;23.50;99.90;;;;;;5049572;28;19951;-66
2022/05/17 10:33:19;;;;;;;;;;;23.70;99.90;;;;;;5050679;28;19948;-67
2022/05/17 10:35:50;;;;;;;;;;;23.80;99.90;;;;;;5051404;28;19919;-66
2022/05/17 10:38:25;;;;;;;;;;;23.80;99.90;;;;;;5051376;28;19913;-68
2022/05/17 10:40:52;;;;;;;;;;;23.70;99.90;;;;;;5050899;28;19917;-65
2022/05/17 10:43:18;;;;;;;;;;;23.70;99.90;;;;;;5046062;28;19974;-67
2022/05/17 10:45:55;;;;;;;;;;;23.80;99.90;;;;;;5058721;28;19909;-67
2022/05/17 10:48:20;;;;;;;;;;;23.80;99.90;;;;;;5042180;28;19913;-68
2022/05/17 10:51:01;;;;;;;;;;;23.90;99.90;;;;;;5059059;28;20012;-67
2022/05/17 10:53:46;;;;;;;;;;;24.00;99.90;;;;;;5051674;28;19919;-65
2022/05/17 10:56:17;;;;;;;;;;;23.90;99.90;;;;;;5050799;28;20034;-67
2022/05/17 10:59:01;;;;;;;;;;;23.80;99.90;;;;;;5058571;28;19923;-67
2022/05/17 11:01:45;;;;;;;;;;;23.80;99.90;;;;;;5050497;28;19921;-68
2022/05/17 11:04:21;;;;;;;;;;;23.80;99.90;;;;;;5050801;28;19912;-65
2022/05/17 11:07:05;;;;;;;;;;;23.70;99.90;;;;;;5050115;28;20401;-68
2022/05/17 11:09:39;;;;;;;;;;;23.80;99.90;;;;;;5031770;28;20007;-68
2022/05/17 11:12:09;;;;;;;;;;;23.70;99.90;;;;;;5047822;28;19913;-66
2022/05/17 11:14:35;;;;;;;;;;;23.70;99.90;;;;;;5052095;28;19962;-69
2022/05/17 11:17:01;;;;;;;;;;;23.60;99.90;;;;;;5055362;28;19912;-71
2022/05/17 11:19:30;;;;;;;;;;;23.50;99.90;;;;;;5052213;28;20387;-70
2022/05/17 11:22:07;;;;;;;;;;;23.50;99.90;;;;;;5049499;28;19913;-68
2022/05/17 11:24:34;;;;;;;;;;;23.50;99.90;;;;;;5041081;28;19913;-69
2022/05/17 11:27:06;;;;;;;;;;;23.70;99.90;;;;;;5042833;28;20350;-69
2022/05/17 11:30:08;;;;;;;;;;;23.80;99.90;;;;;;5043752;28;19913;-69
2022/05/17 11:32:35;;;;;;;;;;;24.00;99.90;;;;;;4978881;28;19915;-70
2022/05/17 11:35:03;;;;;;;;;;;24.20;99.90;;;;;;5028267;28;19921;-70
2022/05/17 11:37:38;;;;;;;;;;;24.20;99.90;;;;;;5040795;28;20440;-69
2022/05/17 11:40:05;;;;;;;;;;;24.20;99.90;;;;;;5041759;28;20007;-70
2022/05/17 11:42:35;;;;;;;;;;;24.30;99.90;;;;;;5041456;28;20321;-69
2022/05/17 11:45:16;;;;;;;;;;;24.40;99.90;;;;;;5041103;28;19928;-68
2022/05/17 11:47:41;;;;;;;;;;;24.50;99.90;;;;;;5041350;28;19982;-69
2022/05/17 11:50:16;;;;;;;;;;;24.70;99.90;;;;;;5043792;28;19913;-69
2022/05/17 11:52:43;;;;;;;;;;;24.60;99.90;;;;;;5039452;28;19978;-69
2022/05/17 11:55:13;;;;;;;;;;;24.60;99.90;;;;;;5041529;28;19962;-68
2022/05/17 11:57:41;;;;;;;;;;;24.60;99.90;;;;;;5042982;28;19921;-67
2022/05/17 12:00:30;;;;;;;;;;;24.70;99.90;;;;;;5042397;28;19921;-69
2022/05/17 12:02:58;;;;;;;;;;;24.70;99.90;;;;;;5042007;28;19932;-68
2022/05/17 12:05:37;;;;;;;;;;;24.60;99.90;;;;;;5043436;28;19913;-69
2022/05/17 12:08:21;;;;;;;;;;;24.70;99.90;;;;;;5039894;28;19917;-68
2022/05/17 12:10:47;;;;;;;;;;;24.70;99.90;;;;;;5043944;28;19920;-68
2022/05/17 12:13:14;;;;;;;;;;;24.80;99.90;;;;;;5024489;28;19913;-68
2022/05/17 12:15:52;;;;;;;;;;;24.80;99.90;;;;;;5048233;28;20097;-69
2022/05/17 12:18:30;;;;;;;;;;;25.00;99.90;;;;;;5048381;28;19916;-69
2022/05/17 12:20:55;;;;;;;;;;;24.90;99.90;;;;;;5047603;28;20016;-67
2022/05/17 12:23:34;;;;;;;;;;;24.90;99.90;;;;;;5048898;28;19952;-68
2022/05/17 12:26:05;;;;;;;;;;;24.80;99.90;;;;;;5044112;28;19913;-69
2022/05/17 12:28:33;;;;;;;;;;;24.90;99.90;;;;;;5031364;28;19920;-68
2022/05/17 12:31:02;;;;;;;;;;;25.00;99.90;;;;;;5039220;28;20436;-68
2022/05/17 12:33:27;;;;;;;;;;;25.00;99.90;;;;;;5030920;28;19920;-68
2022/05/17 12:35:54;;;;;;;;;;;25.10;99.90;;;;;;5050547;28;19908;-68
2022/05/17 12:44:05;;;;;;;;;;;25.10;99.90;;;;;;5041024;28;20431;-68
2022/05/17 12:46:31;;;;;;;;;;;25.10;99.90;;;;;;5029337;28;20008;-68
2022/05/17 12:49:00;;;;;;;;;;;25.10;99.90;;;;;;5048103;28;19948;-67
2022/05/17 12:51:26;;;;;;;;;;;25.00;99.90;;;;;;5040204;28;20331;-67
2022/05/17 12:53:53;;;;;;;;;;;25.10;99.90;;;;;;5038468;28;20418;-68
2022/05/17 12:56:24;;;;;;;;;;;25.10;99.90;;;;;;5044683;28;19917;-67
2022/05/17 12:58:55;;;;;;;;;;;25.20;99.90;;;;;;5040353;28;19925;-67
2022/05/17 13:01:25;;;;;;;;;;;25.10;99.90;;;;;;5043266;28;19924;-62
2022/05/17 13:03:53;;;;;;;;;;;24.90;99.90;;;;;;5046784;28;19921;-61
2022/05/17 13:06:19;;;;;;;;;;;25.00;99.90;;;;;;5040215;28;19996;-62
2022/05/17 13:08:45;;;;;;;;;;;24.90;99.90;;;;;;5048767;28;20007;-61
2022/05/17 13:11:25;;;;;;;;;;;24.90;99.90;;;;;;5044767;28;20046;-63
2022/05/17 13:14:01;;;;;;;;;;;24.90;99.90;;;;;;5045395;28;19920;-62
2022/05/17 13:16:29;;;;;;;;;;;25.00;99.90;;;;;;5042354;28;20394;-61
2022/05/17 13:18:56;;;;;;;;;;;24.90;99.90;;;;;;5043809;28;20001;-62
2022/05/17 13:21:24;;;;;;;;;;;24.90;99.90;;;;;;5042807;28;20047;-64
2022/05/17 13:23:51;;;;;;;;;;;25.00;99.90;;;;;;5043911;28;19913;-62
2022/05/17 13:26:27;;;;;;;;;;;25.10;99.90;;;;;;5064465;28;19954;-62
2022/05/17 13:28:54;;;;;;;;;;;25.20;99.90;;;;;;5064854;28;19920;-62
2022/05/17 13:31:21;;;;;;;;;;;25.10;99.90;;;;;;5049250;28;19924;-65
2022/05/17 13:33:54;;;;;;;;;;;25.20;99.90;;;;;;5049513;28;19956;-62
2022/05/17 13:36:32;;;;;;;;;;;25.30;99.90;;;;;;5061526;28;20366;-63
2022/05/17 13:38:57;;;;;;;;;;;25.30;99.90;;;;;;5057587;28;20297;-62
2022/05/17 13:41:31;;;;;;;;;;;25.30;99.90;;;;;;5073130;28;19912;-64
2022/05/17 13:44:00;;;;;;;;;;;25.40;99.90;;;;;;5051616;28;19966;-61
2022/05/17 13:46:30;;;;;;;;;;;25.40;99.90;;;;;;5054424;28;19998;-67
2022/05/17 13:49:05;;;;;;;;;;;25.30;99.90;;;;;;5053492;28;19912;-61
2022/05/17 13:51:31;;;;;;;;;;;25.30;99.90;;;;;;5058801;28;19913;-63
2022/05/17 13:54:03;;;;;;;;;;;25.40;99.90;;;;;;5051015;28;19913;-62
2022/05/17 13:56:31;;;;;;;;;;;25.70;99.90;;;;;;5053971;28;19923;-64
2022/05/17 13:59:00;;;;;;;;;;;25.70;99.90;;;;;;5050424;28;19927;-62
2022/05/17 14:01:34;;;;;;;;;;;25.60;99.90;;;;;;5061359;28;19917;-62
2022/05/17 14:04:21;;;;;;;;;;;25.40;99.90;;;;;;5054151;28;19920;-63
2022/05/17 14:07:04;;;;;;;;;;;25.10;99.90;;;;;;5047289;28;20378;-63
2022/05/17 14:12:18;;;;;;;;;;;25.10;99.90;;;;;;5054289;28;19970;-60
2022/05/17 14:14:44;;;;;;;;;;;25.30;99.90;;;;;;5053064;28;19913;-61
2022/05/17 14:17:16;;;;;;;;;;;25.50;99.90;;;;;;5052026;28;19939;-61
2022/05/17 14:19:43;;;;;;;;;;;25.60;99.90;;;;;;5051374;28;19912;-60
2022/05/17 14:22:10;;;;;;;;;;;25.50;99.90;;;;;;5048025;28;20112;-63
2022/05/17 14:24:35;;;;;;;;;;;25.30;99.90;;;;;;5048098;28;20223;-61
2022/05/17 14:27:02;;;;;;;;;;;25.40;99.90;;;;;;5057201;28;19913;-60
2022/05/17 14:29:33;;;;;;;;;;;25.60;99.90;;;;;;5053140;28;20018;-60
2022/05/17 14:31:59;;;;;;;;;;;25.80;99.90;;;;;;5060316;28;19935;-61
2022/05/17 14:34:25;;;;;;;;;;;25.90;99.90;;;;;;5057299;28;20410;-61
2022/05/17 14:36:51;;;;;;;;;;;26.20;99.90;;;;;;5045728;28;20293;-68
2022/05/17 14:39:17;;;;;;;;;;;26.20;99.90;;;;;;5048001;28;20004;-68
2022/05/17 14:41:44;;;;;;;;;;;26.30;99.90;;;;;;5048792;28;19916;-69